createdAt,value
2023-04-18T00:01:30.907Z,48.15
2023-04-18T00:03:58.034Z,48.34
2023-04-18T00:06:25.970Z,48.32
2023-04-18T00:08:52.351Z,48.27
2023-04-18T00:11:18.801Z,48.21
2023-04-18T00:13:47.311Z,48.23
2023-04-18T00:16:13.857Z,48.36
2023-04-18T00:18:40.511Z,48.16
2023-04-18T00:21:08.527Z,48.33
2023-04-18T00:23:35.239Z,48.38
2023-04-18T00:26:01.855Z,48.38
2023-04-18T00:28:28.331Z,48.43
2023-04-18T00:30:54.869Z,48.25
2023-04-18T00:33:21.304Z,48.16
2023-04-18T00:35:47.738Z,48.23
2023-04-18T00:38:14.105Z,48.15
2023-04-18T00:40:41.076Z,48.36
2023-04-18T00:43:08.084Z,48.32
2023-04-18T00:45:34.661Z,48.10
2023-04-18T00:48:01.287Z,48.17
2023-04-18T00:50:27.778Z,48.12
2023-04-18T00:52:54.191Z,48.20
2023-04-18T00:55:20.626Z,48.07
2023-04-18T00:57:47.057Z,48.19
2023-04-18T01:00:13.740Z,47.99
2023-04-18T01:02:40.553Z,48.13
2023-04-18T01:05:08.050Z,48.08
2023-04-18T01:07:35.519Z,48.12
2023-04-18T01:10:02.290Z,48.12
2023-04-18T01:12:28.916Z,48.04
2023-04-18T01:14:55.393Z,48.07
2023-04-18T01:17:23.421Z,47.87
2023-04-18T01:19:51.262Z,47.64
2023-04-18T01:22:17.597Z,47.82
2023-04-18T01:24:43.992Z,47.79
2023-04-18T01:27:13.839Z,47.76
2023-04-18T01:29:40.379Z,47.86
2023-04-18T01:32:07.387Z,47.57
2023-04-18T01:34:33.852Z,47.65
2023-04-18T01:37:00.342Z,47.63
2023-04-18T01:39:26.943Z,47.78
2023-04-18T01:41:53.496Z,47.44
2023-04-18T01:44:19.991Z,47.51
2023-04-18T01:46:46.552Z,47.60
2023-04-18T01:49:13.054Z,47.18
2023-04-18T01:51:39.513Z,47.12
2023-04-18T01:54:05.946Z,47.29
2023-04-18T01:56:32.419Z,47.53
2023-04-18T01:58:58.887Z,47.21
2023-04-18T02:01:25.358Z,47.37
2023-04-18T02:03:51.995Z,47.38
2023-04-18T02:06:18.509Z,47.40
2023-04-18T02:08:45.005Z,47.40
2023-04-18T02:11:11.561Z,47.42
2023-04-18T02:13:37.921Z,47.36
2023-04-18T02:16:04.472Z,47.24
2023-04-18T02:18:34.556Z,47.02
2023-04-18T02:21:01.110Z,47.42
2023-04-18T02:23:27.546Z,47.34
2023-04-18T02:25:54.603Z,47.25
2023-04-18T02:28:21.014Z,46.98
2023-04-18T02:30:47.434Z,46.96
2023-04-18T02:33:13.816Z,46.75
2023-04-18T02:35:40.293Z,47.00
2023-04-18T02:38:06.699Z,47.03
2023-04-18T02:40:33.121Z,46.90
2023-04-18T02:42:59.682Z,46.70
2023-04-18T02:45:26.158Z,46.65
2023-04-18T02:47:56.135Z,46.87
2023-04-18T02:50:23.297Z,46.90
2023-04-18T02:52:49.728Z,46.81
2023-04-18T02:55:16.309Z,47.09
2023-04-18T02:57:42.716Z,46.93
2023-04-18T03:00:09.428Z,47.23
2023-04-18T03:02:36.192Z,47.31
2023-04-18T03:05:02.903Z,47.27
2023-04-18T03:07:30.882Z,47.43
2023-04-18T03:09:57.527Z,47.60
2023-04-18T03:12:23.962Z,47.54
2023-04-18T03:14:50.401Z,47.28
2023-04-18T03:17:16.892Z,47.58
2023-04-18T03:19:43.359Z,47.49
2023-04-18T03:22:10.098Z,47.50
2023-04-18T03:24:36.543Z,47.33
2023-04-18T03:27:03.065Z,47.31
2023-04-18T03:29:29.544Z,47.40
2023-04-18T03:31:55.949Z,47.58
2023-04-18T03:34:22.285Z,47.40
2023-04-18T03:36:48.719Z,47.36
2023-04-18T03:39:15.152Z,47.26
2023-04-18T03:41:41.739Z,47.48
2023-04-18T03:44:09.010Z,47.21
2023-04-18T03:46:35.620Z,47.42
2023-04-18T03:49:02.068Z,47.40
2023-04-18T03:51:32.238Z,47.41
2023-04-18T03:53:58.669Z,47.48
2023-04-18T03:56:25.223Z,47.41
2023-04-18T03:58:51.723Z,47.37
2023-04-18T04:01:18.201Z,47.29
2023-04-18T04:03:44.799Z,47.34
2023-04-18T04:06:11.338Z,47.00
2023-04-18T04:08:37.732Z,47.30
2023-04-18T04:11:04.239Z,47.13
2023-04-18T04:13:33.693Z,47.29
2023-04-18T04:16:00.261Z,47.28
2023-04-18T04:18:31.199Z,47.27
2023-04-18T04:20:59.218Z,47.06
2023-04-18T04:23:26.817Z,47.25
2023-04-18T04:25:53.641Z,47.15
2023-04-18T04:28:22.774Z,47.00
2023-04-18T04:30:51.357Z,47.18
2023-04-18T04:33:19.375Z,46.98
2023-04-18T04:35:47.485Z,47.02
2023-04-18T04:38:18.063Z,47.11
2023-04-18T04:40:44.483Z,47.37
2023-04-18T04:43:12.712Z,47.33
2023-04-18T04:45:41.505Z,47.50
2023-04-18T04:48:08.345Z,47.45
2023-04-18T04:50:38.588Z,47.32
2023-04-18T04:53:06.369Z,47.50
2023-04-18T04:55:34.106Z,47.49
2023-04-18T04:58:00.682Z,47.58
2023-04-18T05:00:27.170Z,47.23
2023-04-18T05:02:53.997Z,47.32
2023-04-18T05:05:20.500Z,47.44
2023-04-18T05:07:47.184Z,47.28
2023-04-18T05:10:13.743Z,47.43
2023-04-18T05:12:40.219Z,47.42
2023-04-18T05:15:06.934Z,47.26
2023-04-18T05:17:33.422Z,47.21
2023-04-18T05:19:59.922Z,47.30
2023-04-18T05:22:26.614Z,47.06
2023-04-18T05:24:53.015Z,47.11
2023-04-18T05:27:19.448Z,47.09
2023-04-18T05:29:47.655Z,47.07
2023-04-18T05:32:14.875Z,47.00
2023-04-18T05:34:42.358Z,47.12
2023-04-18T05:37:08.801Z,47.14
2023-04-18T05:39:36.615Z,47.25
2023-04-18T05:42:03.408Z,47.06
2023-04-18T05:44:29.898Z,47.21
2023-04-18T05:46:56.272Z,47.01
2023-04-18T05:49:22.796Z,47.01
2023-04-18T05:51:49.898Z,47.14
2023-04-18T05:54:16.753Z,47.00
2023-04-18T05:56:43.236Z,47.21
2023-04-18T05:59:09.626Z,46.99
2023-04-18T06:01:36.108Z,47.14
2023-04-18T06:04:02.847Z,46.78
2023-04-18T06:06:31.550Z,46.89
2023-04-18T06:08:58.055Z,46.81
2023-04-18T06:11:24.560Z,46.63
2023-04-18T06:13:51.314Z,46.69
2023-04-18T06:16:17.895Z,46.79
2023-04-18T06:18:44.279Z,46.86
2023-04-18T06:21:10.817Z,46.65
2023-04-18T06:23:38.621Z,46.60
2023-04-18T06:26:05.146Z,46.72
2023-04-18T06:28:31.553Z,46.57
2023-04-18T06:30:58.041Z,46.66
2023-04-18T06:33:24.468Z,46.59
2023-04-18T06:35:51.136Z,46.71
2023-04-18T06:38:17.553Z,46.71
2023-04-18T06:40:43.985Z,46.49
2023-04-18T06:43:10.502Z,46.49
2023-04-18T06:45:37.003Z,46.54
2023-04-18T06:48:04.205Z,46.42
2023-04-18T06:50:30.914Z,46.46
2023-04-18T06:52:57.330Z,46.15
2023-04-18T06:55:23.729Z,46.25
2023-04-18T06:57:50.196Z,45.96
2023-04-18T07:00:17.981Z,46.19
2023-04-18T07:02:44.696Z,45.96
2023-04-18T07:05:11.494Z,46.23
2023-04-18T07:07:38.015Z,45.97
2023-04-18T07:10:04.708Z,46.02
2023-04-18T07:12:31.124Z,45.75
2023-04-18T07:14:57.616Z,45.74
2023-04-18T07:17:24.066Z,45.75
2023-04-18T07:19:52.817Z,45.60
2023-04-18T07:22:19.254Z,45.64
2023-04-18T07:24:45.864Z,45.87
2023-04-18T07:27:12.381Z,45.62
2023-04-18T07:29:38.943Z,45.52
2023-04-18T07:32:08.137Z,45.41
2023-04-18T07:34:36.207Z,45.26
2023-04-18T07:37:02.732Z,45.17
2023-04-18T07:39:29.312Z,45.01
2023-04-18T07:41:55.990Z,45.02
2023-04-18T07:44:22.573Z,44.94
2023-04-18T07:46:49.035Z,45.14
2023-04-18T07:49:16.042Z,45.54
2023-04-18T07:51:42.853Z,45.63
2023-04-18T07:54:11.190Z,45.14
2023-04-18T07:56:37.744Z,45.05
2023-04-18T07:59:05.396Z,45.00
2023-04-18T08:01:32.059Z,45.11
2023-04-18T08:04:01.797Z,45.10
2023-04-18T08:06:29.045Z,45.10
2023-04-18T08:08:55.653Z,44.65
2023-04-18T08:11:22.156Z,43.95
2023-04-18T08:13:48.625Z,44.05
2023-04-18T08:16:17.349Z,44.22
2023-04-18T08:18:44.300Z,43.71
2023-04-18T08:21:11.248Z,43.68
2023-04-18T08:23:37.736Z,43.75
2023-04-18T08:26:04.211Z,43.38
2023-04-18T08:28:30.744Z,42.99
2023-04-18T08:30:57.322Z,42.77
2023-04-18T08:33:24.576Z,42.73
2023-04-18T08:35:51.533Z,42.91
2023-04-18T08:38:18.217Z,42.54
2023-04-18T08:40:44.848Z,42.17
2023-04-18T08:43:14.048Z,42.11
2023-04-18T08:45:43.987Z,42.21
2023-04-18T08:48:15.332Z,42.45
2023-04-18T08:50:41.967Z,42.42
2023-04-18T08:53:08.439Z,42.19
2023-04-18T08:55:36.019Z,42.50
2023-04-18T08:58:02.898Z,42.67
2023-04-18T09:00:29.573Z,42.75
2023-04-18T09:02:59.264Z,42.69
2023-04-18T09:05:26.839Z,42.98
2023-04-18T09:07:53.799Z,42.98
2023-04-18T09:10:43.060Z,43.24
2023-04-18T09:13:11.406Z,43.15
2023-04-18T09:15:37.897Z,43.47
2023-04-18T09:18:04.404Z,43.75
2023-04-18T09:20:34.558Z,43.76
2023-04-18T09:23:04.364Z,43.90
2023-04-18T09:25:36.114Z,44.06
2023-04-18T09:28:03.151Z,44.40
2023-04-18T09:30:39.614Z,44.30
2023-04-18T09:33:09.511Z,44.51
2023-04-18T09:35:36.939Z,44.76
2023-04-18T09:38:06.410Z,45.02
2023-04-18T09:40:33.128Z,44.88
2023-04-18T09:42:59.621Z,45.07
2023-04-18T09:45:26.505Z,45.24
2023-04-18T09:47:53.263Z,45.35
2023-04-18T09:50:20.837Z,45.49
2023-04-18T09:52:47.577Z,45.21
2023-04-18T09:55:16.495Z,45.18
2023-04-18T09:57:46.766Z,45.10
2023-04-18T10:00:20.277Z,45.33
2023-04-18T10:02:59.866Z,45.05
2023-04-18T10:05:27.448Z,45.16
2023-04-18T10:07:54.451Z,45.07
2023-04-18T10:10:20.953Z,45.11
2023-04-18T10:12:48.109Z,45.30
2023-04-18T10:15:15.777Z,45.17
2023-04-18T10:18:02.583Z,45.03
2023-04-18T10:20:31.365Z,45.21
2023-04-18T10:23:01.521Z,45.13
2023-04-18T10:25:39.936Z,45.37
2023-04-18T10:28:06.963Z,45.51
2023-04-18T10:30:42.551Z,45.68
2023-04-18T10:33:32.272Z,45.88
2023-04-18T10:36:19.829Z,45.78
2023-04-18T10:38:47.448Z,45.80
2023-04-18T10:41:14.023Z,45.85
2023-04-18T10:43:59.165Z,45.76
2023-04-18T10:46:32.221Z,45.90
2023-04-18T10:49:18.135Z,45.85
2023-04-18T10:51:48.069Z,45.88
2023-04-18T10:54:22.579Z,45.91
2023-04-18T10:56:55.965Z,45.80
2023-04-18T10:59:22.821Z,46.07
2023-04-18T11:01:49.658Z,45.75
2023-04-18T11:04:16.677Z,45.73
2023-04-18T11:06:50.282Z,45.95
2023-04-18T11:09:16.836Z,45.74
2023-04-18T11:11:44.705Z,46.03
2023-04-18T11:14:11.301Z,46.10
2023-04-18T11:16:38.021Z,45.94
2023-04-18T11:19:20.278Z,45.78
2023-04-18T11:21:47.249Z,46.02
2023-04-18T11:24:20.597Z,45.80
2023-04-18T11:26:47.126Z,46.09
2023-04-18T11:29:13.623Z,45.88
2023-04-18T11:31:42.506Z,45.92
2023-04-18T11:34:09.105Z,45.97
2023-04-18T11:36:38.228Z,45.80
2023-04-18T11:39:04.632Z,45.96
2023-04-18T11:41:30.978Z,45.96
2023-04-18T11:43:57.521Z,45.80
2023-04-18T11:46:23.978Z,45.82
2023-04-18T11:48:53.350Z,45.91
2023-04-18T11:51:34.256Z,46.02
2023-04-18T11:54:00.781Z,45.84
2023-04-18T11:56:27.303Z,46.02
2023-04-18T11:58:53.771Z,45.88
2023-04-18T12:01:21.295Z,45.82
2023-04-18T12:04:07.122Z,45.90
2023-04-18T12:06:46.548Z,45.78
2023-04-18T12:09:16.428Z,45.53
2023-04-18T12:11:42.890Z,45.55
2023-04-18T12:14:21.972Z,45.53
2023-04-18T12:16:50.433Z,45.53
2023-04-18T12:19:20.767Z,45.29
2023-04-18T12:25:32.864Z,45.29
2023-04-18T12:28:06.441Z,45.33
2023-04-18T12:30:36.026Z,45.22
2023-04-18T12:33:04.339Z,45.18
2023-04-18T12:35:32.444Z,45.24
2023-04-18T12:38:00.025Z,45.08
2023-04-18T12:40:26.726Z,45.40
2023-04-18T12:42:53.641Z,45.28
2023-04-18T12:45:20.414Z,45.12
2023-04-18T12:47:47.662Z,45.31
2023-04-18T12:50:18.163Z,45.24
2023-04-18T12:52:45.002Z,45.13
2023-04-18T12:55:11.977Z,45.10
2023-04-18T12:57:38.522Z,44.91
2023-04-18T13:00:13.246Z,45.01
2023-04-18T13:02:41.009Z,44.97
2023-04-18T13:05:08.372Z,44.97
2023-04-18T13:07:34.905Z,44.94
2023-04-18T13:10:01.475Z,44.81
2023-04-18T13:12:29.494Z,44.60
2023-04-18T13:14:56.338Z,44.67
2023-04-18T13:17:22.847Z,44.69
2023-04-18T13:19:49.449Z,44.63
2023-04-18T13:22:16.047Z,44.61
2023-04-18T13:24:42.523Z,44.67
2023-04-18T13:27:11.616Z,44.41
2023-04-18T13:29:38.458Z,44.38
2023-04-18T13:32:05.783Z,44.43
2023-04-18T13:34:37.396Z,44.51
2023-04-18T13:37:03.932Z,44.37
2023-04-18T13:39:31.845Z,44.40
2023-04-18T13:41:58.472Z,44.37
2023-04-18T13:44:25.100Z,44.45
2023-04-18T13:46:51.955Z,44.37
2023-04-18T13:49:18.533Z,44.53
2023-04-18T13:51:45.063Z,44.39
2023-04-18T13:54:14.746Z,44.43
2023-04-18T13:56:41.619Z,44.49
2023-04-18T13:59:08.252Z,44.31
2023-04-18T14:01:34.918Z,44.40
2023-04-18T14:04:02.920Z,44.34
2023-04-18T14:06:29.555Z,44.42
2023-04-18T14:08:57.254Z,44.41
2023-04-18T14:11:23.736Z,44.29
2023-04-18T14:13:50.242Z,44.24
2023-04-18T14:16:16.721Z,44.36
2023-04-18T14:18:43.515Z,44.27
2023-04-18T14:21:11.124Z,44.25
2023-04-18T14:23:38.862Z,44.25
2023-04-18T14:26:05.400Z,44.24
2023-04-18T14:28:32.112Z,44.43
2023-04-18T14:31:02.288Z,44.76
2023-04-18T14:33:29.324Z,44.70
2023-04-18T14:35:55.902Z,44.63
2023-04-18T14:38:23.575Z,44.61
2023-04-18T14:40:51.023Z,44.79
2023-04-18T14:43:17.527Z,44.45
2023-04-18T14:45:44.026Z,44.70
2023-04-18T14:48:10.650Z,44.89
2023-04-18T14:50:42.424Z,44.85
2023-04-18T14:53:08.981Z,44.94
2023-04-18T14:55:37.428Z,44.79
2023-04-18T14:58:03.982Z,45.04
2023-04-18T15:00:31.657Z,45.01
2023-04-18T15:02:58.222Z,45.33
2023-04-18T15:05:24.819Z,44.87
2023-04-18T15:07:51.964Z,45.26
2023-04-18T15:10:22.526Z,45.09
2023-04-18T15:12:49.025Z,44.97
2023-04-18T15:15:15.621Z,45.00
2023-04-18T15:17:42.137Z,44.74
2023-04-18T15:20:09.565Z,44.62
2023-04-18T15:22:36.152Z,44.78
2023-04-18T15:25:04.063Z,44.85
2023-04-18T15:27:31.724Z,44.80
2023-04-18T15:29:58.228Z,44.61
2023-04-18T15:32:24.848Z,44.98
2023-04-18T15:34:51.548Z,44.98
2023-04-18T15:37:17.980Z,44.93
2023-04-18T15:39:44.450Z,44.94
2023-04-18T15:42:10.919Z,45.16
2023-04-18T15:44:37.359Z,45.22
2023-04-18T15:47:03.802Z,45.24
2023-04-18T15:49:31.229Z,45.32
2023-04-18T15:51:57.628Z,45.18
2023-04-18T15:54:24.138Z,45.37
2023-04-18T15:56:50.853Z,45.32
2023-04-18T15:59:17.480Z,45.04
2023-04-18T16:01:46.026Z,45.09
2023-04-18T16:04:13.043Z,45.13
2023-04-18T16:06:40.421Z,45.06
2023-04-18T16:09:06.949Z,45.16
2023-04-18T16:11:33.388Z,45.02
2023-04-18T16:13:59.794Z,45.21
2023-04-18T16:16:28.483Z,45.31
2023-04-18T16:18:55.212Z,45.19
2023-04-18T16:21:21.701Z,45.16
2023-04-18T16:23:48.830Z,45.49
2023-04-18T16:26:15.311Z,45.57
2023-04-18T16:28:42.111Z,45.22
2023-04-18T16:31:08.580Z,45.38
2023-04-18T16:33:35.695Z,45.14
2023-04-18T16:36:05.157Z,45.22
2023-04-18T16:38:31.851Z,45.52
2023-04-18T16:40:58.741Z,45.67
2023-04-18T16:43:27.002Z,45.56
2023-04-18T16:45:56.341Z,45.56
2023-04-18T16:48:23.310Z,45.72
2023-04-18T16:50:50.010Z,45.89
2023-04-18T16:53:16.746Z,45.44
2023-04-18T16:55:43.222Z,45.63
2023-04-18T16:58:09.868Z,45.35
2023-04-18T17:00:38.269Z,45.52
2023-04-18T17:03:07.295Z,45.49
2023-04-18T17:05:34.108Z,45.41
2023-04-18T17:08:01.088Z,45.28
2023-04-18T17:10:29.330Z,45.15
2023-04-18T17:12:56.250Z,45.35
2023-04-18T17:15:22.789Z,45.53
2023-04-18T17:17:50.348Z,45.39
2023-04-18T17:20:17.894Z,45.51
2023-04-18T17:22:46.010Z,45.56
2023-04-18T17:25:12.652Z,45.69
2023-04-18T17:27:39.849Z,45.72
2023-04-18T17:30:06.977Z,45.51
2023-04-18T17:32:35.703Z,45.60
2023-04-18T17:35:06.517Z,45.57
2023-04-18T17:37:33.082Z,45.63
2023-04-18T17:40:00.507Z,45.64
2023-04-18T17:42:27.082Z,45.63
2023-04-18T17:44:53.484Z,45.74
2023-04-18T17:47:19.886Z,45.75
2023-04-18T17:49:46.896Z,45.77
2023-04-18T17:52:18.157Z,46.05
2023-04-18T17:54:46.294Z,45.88
2023-04-18T17:57:12.827Z,45.85
2023-04-18T17:59:40.706Z,46.15
2023-04-18T18:02:07.501Z,46.21
2023-04-18T18:04:34.081Z,46.08
2023-04-18T18:07:00.941Z,46.11
2023-04-18T18:09:27.448Z,46.09
2023-04-18T18:11:55.915Z,46.12
2023-04-18T18:14:22.850Z,46.16
2023-04-18T18:16:50.429Z,46.19
2023-04-18T18:19:17.454Z,46.30
2023-04-18T18:21:43.917Z,46.31
2023-04-18T18:24:11.973Z,46.22
2023-04-18T18:26:38.375Z,46.23
2023-04-18T18:29:09.300Z,46.11
2023-04-18T18:31:36.071Z,46.34
2023-04-18T18:34:02.611Z,46.43
2023-04-18T18:36:29.107Z,46.07
2023-04-18T18:38:55.917Z,46.20
2023-04-18T18:41:22.876Z,46.29
2023-04-18T18:43:49.629Z,45.96
2023-04-18T18:46:16.218Z,45.94
2023-04-18T18:48:42.820Z,45.90
2023-04-18T18:51:09.287Z,45.78
2023-04-18T18:53:36.821Z,45.76
2023-04-18T18:56:04.961Z,45.70
2023-04-18T18:58:31.633Z,45.95
2023-04-18T19:01:00.834Z,45.65
2023-04-18T19:03:27.926Z,45.66
2023-04-18T19:05:56.391Z,45.90
2023-04-18T19:08:24.015Z,46.04
2023-04-18T19:10:51.373Z,45.63
2023-04-18T19:13:21.656Z,45.82
2023-04-18T19:15:49.831Z,45.59
2023-04-18T19:18:18.095Z,45.64
2023-04-18T19:20:46.886Z,45.66
2023-04-18T19:23:14.874Z,45.76
2023-04-18T19:25:41.541Z,45.49
2023-04-18T19:28:08.033Z,45.69
2023-04-18T19:30:34.526Z,45.68
2023-04-18T19:33:01.081Z,45.73
2023-04-18T19:35:27.533Z,45.61
2023-04-18T19:38:01.295Z,45.48
2023-04-18T19:40:28.152Z,45.66
2023-04-18T19:42:56.879Z,45.73
2023-04-18T19:45:23.647Z,45.51
2023-04-18T19:47:50.183Z,45.63
2023-04-18T19:50:16.835Z,45.33
2023-04-18T19:52:43.461Z,45.47
2023-04-18T19:55:10.055Z,45.60
2023-04-18T19:57:39.955Z,45.68
2023-04-18T20:00:07.356Z,45.63
2023-04-18T20:02:33.871Z,45.30
2023-04-18T20:05:00.699Z,45.20
2023-04-18T20:07:27.390Z,45.20
2023-04-18T20:09:53.918Z,45.36
2023-04-18T20:12:20.504Z,45.32
2023-04-18T20:14:46.993Z,45.54
2023-04-18T20:17:13.551Z,45.25
2023-04-18T20:19:39.981Z,45.49
2023-04-18T20:22:06.542Z,45.48
2023-04-18T20:24:34.583Z,45.35
2023-04-18T20:27:01.623Z,45.29
2023-04-18T20:29:28.149Z,45.35
2023-04-18T20:31:54.759Z,45.21
2023-04-18T20:34:21.297Z,45.30
2023-04-18T20:36:47.873Z,45.49
2023-04-18T20:39:14.607Z,45.24
2023-04-18T20:41:50.747Z,45.37
2023-04-18T20:44:19.069Z,45.57
2023-04-18T20:46:45.549Z,45.39
2023-04-18T20:49:12.004Z,45.61
2023-04-18T20:51:38.794Z,45.38
2023-04-18T20:54:05.770Z,45.65
2023-04-18T20:56:32.377Z,45.75
2023-04-18T20:58:58.758Z,45.75
2023-04-18T21:01:25.329Z,45.46
2023-04-18T21:03:52.268Z,45.63
2023-04-18T21:06:22.200Z,45.47
2023-04-18T21:08:48.819Z,45.66
2023-04-18T21:11:15.345Z,45.61
2023-04-18T21:13:41.806Z,45.56
2023-04-18T21:16:10.272Z,45.45
2023-04-18T21:18:36.991Z,45.67
2023-04-18T21:21:03.664Z,45.81
2023-04-18T21:23:32.968Z,45.39
2023-04-18T21:25:59.440Z,45.62
2023-04-18T21:28:26.070Z,45.68
2023-04-18T21:30:52.547Z,45.65
2023-04-18T21:33:19.325Z,45.72
2023-04-18T21:35:45.831Z,45.44
2023-04-18T21:38:12.376Z,45.39
2023-04-18T21:40:38.779Z,45.62
2023-04-18T21:43:05.328Z,45.60
2023-04-18T21:45:31.851Z,45.55
2023-04-18T21:47:58.392Z,45.59
2023-04-18T21:50:24.852Z,45.44
2023-04-18T21:52:51.368Z,45.43
2023-04-18T21:55:18.025Z,45.61
2023-04-18T21:57:44.542Z,45.58
2023-04-18T22:00:11.314Z,45.17
2023-04-18T22:02:38.991Z,45.66
2023-04-18T22:05:05.672Z,45.69
2023-04-18T22:07:32.370Z,45.47
2023-04-18T22:09:59.819Z,45.55
2023-04-18T22:12:26.453Z,45.25
2023-04-18T22:14:53.022Z,45.51
2023-04-18T22:17:21.012Z,45.35
2023-04-18T22:19:49.711Z,45.29
2023-04-18T22:22:16.328Z,45.38
2023-04-18T22:24:43.589Z,45.50
2023-04-18T22:27:11.629Z,45.44
2023-04-18T22:29:38.039Z,45.30
2023-04-18T22:32:04.593Z,45.39
2023-04-18T22:34:31.355Z,45.31
2023-04-18T22:36:57.825Z,45.38
2023-04-18T22:39:24.694Z,45.10
2023-04-18T22:41:51.165Z,45.38
2023-04-18T22:44:17.718Z,45.27
2023-04-18T22:46:44.644Z,45.51
2023-04-18T22:49:11.371Z,45.43
2023-04-18T22:51:38.267Z,45.19
2023-04-18T22:54:04.913Z,45.43
2023-04-18T22:56:31.411Z,45.30
2023-04-18T22:58:57.801Z,45.57
2023-04-18T23:01:25.626Z,45.49
2023-04-18T23:03:52.344Z,45.66
2023-04-18T23:06:18.829Z,45.73
2023-04-18T23:08:45.252Z,45.51
2023-04-18T23:11:11.755Z,45.70
2023-04-18T23:13:38.165Z,45.55
2023-04-18T23:16:04.821Z,45.49
2023-04-18T23:18:31.228Z,45.63
2023-04-18T23:20:57.723Z,45.62
2023-04-18T23:23:24.254Z,45.65
2023-04-18T23:25:50.771Z,45.63
2023-04-18T23:28:17.765Z,45.70
2023-04-18T23:30:44.232Z,45.79
2023-04-18T23:33:10.950Z,45.78
2023-04-18T23:35:37.724Z,45.70
2023-04-18T23:38:04.294Z,45.64
2023-04-18T23:40:30.942Z,45.54
2023-04-18T23:42:57.362Z,45.72
2023-04-18T23:45:24.565Z,45.75
2023-04-18T23:47:51.510Z,45.62
2023-04-18T23:50:18.124Z,45.49
2023-04-18T23:52:44.533Z,45.43
2023-04-18T23:55:11.000Z,45.38
2023-04-18T23:57:37.503Z,45.44
